sensor_id;sensor_type;location;lat;lon;timestamp;P1;durP1;ratioP1;P2;durP2;ratioP2
39486;SDS011;25173;50.430;18.926;2023-03-01T00:01:32;205.82;;;97.50;;
39486;SDS011;25173;50.430;18.926;2023-03-01T00:04:33;240.88;;;116.72;;
39486;SDS011;25173;50.430;18.926;2023-03-01T00:07:35;231.02;;;113.88;;
39486;SDS011;25173;50.430;18.926;2023-03-01T00:10:36;154.88;;;79.75;;
39486;SDS011;25173;50.430;18.926;2023-03-01T00:13:36;167.18;;;82.35;;
39486;SDS011;25173;50.430;18.926;2023-03-01T00:16:41;126.43;;;65.13;;
39486;SDS011;25173;50.430;18.926;2023-03-01T00:22:43;116.60;;;61.08;;
39486;SDS011;25173;50.430;18.926;2023-03-01T00:25:44;99.30;;;54.80;;
39486;SDS011;25173;50.430;18.926;2023-03-01T00:28:45;101.03;;;56.20;;
39486;SDS011;25173;50.430;18.926;2023-03-01T00:31:46;99.10;;;54.95;;
39486;SDS011;25173;50.430;18.926;2023-03-01T00:34:47;101.97;;;55.42;;
39486;SDS011;25173;50.430;18.926;2023-03-01T00:37:54;103.25;;;55.67;;
39486;SDS011;25173;50.430;18.926;2023-03-01T00:41:02;108.68;;;56.15;;
39486;SDS011;25173;50.430;18.926;2023-03-01T00:44:04;94.47;;;51.35;;
39486;SDS011;25173;50.430;18.926;2023-03-01T00:47:05;99.20;;;55.15;;
39486;SDS011;25173;50.430;18.926;2023-03-01T00:50:05;102.03;;;56.53;;
39486;SDS011;25173;50.430;18.926;2023-03-01T00:53:06;107.93;;;56.22;;
39486;SDS011;25173;50.430;18.926;2023-03-01T00:56:08;101.93;;;55.00;;
39486;SDS011;25173;50.430;18.926;2023-03-01T00:59:11;126.18;;;65.25;;
39486;SDS011;25173;50.430;18.926;2023-03-01T01:02:13;108.50;;;60.10;;
39486;SDS011;25173;50.430;18.926;2023-03-01T01:05:14;101.28;;;55.40;;
39486;SDS011;25173;50.430;18.926;2023-03-01T01:08:15;98.03;;;51.72;;
39486;SDS011;25173;50.430;18.926;2023-03-01T01:11:15;97.03;;;51.97;;
39486;SDS011;25173;50.430;18.926;2023-03-01T01:14:16;96.53;;;54.22;;
39486;SDS011;25173;50.430;18.926;2023-03-01T01:17:17;90.20;;;50.60;;
39486;SDS011;25173;50.430;18.926;2023-03-01T01:20:18;96.32;;;54.50;;
39486;SDS011;25173;50.430;18.926;2023-03-01T01:23:19;109.05;;;62.30;;
39486;SDS011;25173;50.430;18.926;2023-03-01T01:26:21;117.90;;;61.53;;
39486;SDS011;25173;50.430;18.926;2023-03-01T01:29:24;103.57;;;56.03;;
39486;SDS011;25173;50.430;18.926;2023-03-01T01:32:25;144.10;;;75.75;;
39486;SDS011;25173;50.430;18.926;2023-03-01T01:35:25;169.68;;;91.25;;
39486;SDS011;25173;50.430;18.926;2023-03-01T01:38:26;132.23;;;72.05;;
39486;SDS011;25173;50.430;18.926;2023-03-01T01:41:27;100.85;;;55.75;;
39486;SDS011;25173;50.430;18.926;2023-03-01T01:44:29;125.15;;;67.70;;
39486;SDS011;25173;50.430;18.926;2023-03-01T01:47:30;107.78;;;59.13;;
39486;SDS011;25173;50.430;18.926;2023-03-01T01:50:31;102.78;;;55.15;;
39486;SDS011;25173;50.430;18.926;2023-03-01T01:53:38;96.00;;;51.75;;
39486;SDS011;25173;50.430;18.926;2023-03-01T01:56:42;94.78;;;51.10;;
39486;SDS011;25173;50.430;18.926;2023-03-01T01:59:49;82.00;;;46.70;;
39486;SDS011;25173;50.430;18.926;2023-03-01T02:06:15;86.75;;;47.17;;
39486;SDS011;25173;50.430;18.926;2023-03-01T02:09:22;86.30;;;47.53;;
39486;SDS011;25173;50.430;18.926;2023-03-01T02:12:24;85.32;;;44.58;;
39486;SDS011;25173;50.430;18.926;2023-03-01T02:15:26;78.45;;;45.38;;
39486;SDS011;25173;50.430;18.926;2023-03-01T02:18:27;85.82;;;49.17;;
39486;SDS011;25173;50.430;18.926;2023-03-01T02:31:19;75.68;;;42.28;;
39486;SDS011;25173;50.430;18.926;2023-03-01T02:34:39;76.57;;;42.03;;
39486;SDS011;25173;50.430;18.926;2023-03-01T02:37:41;76.22;;;42.28;;
39486;SDS011;25173;50.430;18.926;2023-03-01T02:40:43;111.25;;;56.40;;
39486;SDS011;25173;50.430;18.926;2023-03-01T02:43:45;137.90;;;70.03;;
39486;SDS011;25173;50.430;18.926;2023-03-01T02:46:47;172.85;;;83.25;;
39486;SDS011;25173;50.430;18.926;2023-03-01T02:49:50;127.30;;;65.28;;
39486;SDS011;25173;50.430;18.926;2023-03-01T02:53:11;116.53;;;60.10;;
39486;SDS011;25173;50.430;18.926;2023-03-01T02:56:16;82.60;;;48.47;;
39486;SDS011;25173;50.430;18.926;2023-03-01T02:59:18;75.10;;;43.55;;
39486;SDS011;25173;50.430;18.926;2023-03-01T03:02:22;85.72;;;48.45;;
39486;SDS011;25173;50.430;18.926;2023-03-01T03:05:52;86.55;;;46.88;;
39486;SDS011;25173;50.430;18.926;2023-03-01T03:08:52;89.00;;;48.65;;
39486;SDS011;25173;50.430;18.926;2023-03-01T03:11:53;101.65;;;51.63;;
39486;SDS011;25173;50.430;18.926;2023-03-01T03:14:53;90.43;;;51.33;;
39486;SDS011;25173;50.430;18.926;2023-03-01T03:17:54;98.20;;;51.75;;
39486;SDS011;25173;50.430;18.926;2023-03-01T03:20:56;89.18;;;51.92;;
39486;SDS011;25173;50.430;18.926;2023-03-01T03:23:56;85.90;;;49.60;;
39486;SDS011;25173;50.430;18.926;2023-03-01T03:26:57;84.28;;;48.72;;
39486;SDS011;25173;50.430;18.926;2023-03-01T03:29:58;82.97;;;48.22;;
39486;SDS011;25173;50.430;18.926;2023-03-01T03:32:59;76.82;;;44.25;;
39486;SDS011;25173;50.430;18.926;2023-03-01T03:35:59;76.65;;;43.58;;
39486;SDS011;25173;50.430;18.926;2023-03-01T03:39:00;77.72;;;40.83;;
39486;SDS011;25173;50.430;18.926;2023-03-01T03:42:00;77.38;;;45.40;;
39486;SDS011;25173;50.430;18.926;2023-03-01T03:45:01;71.97;;;43.88;;
39486;SDS011;25173;50.430;18.926;2023-03-01T03:48:03;76.82;;;43.95;;
39486;SDS011;25173;50.430;18.926;2023-03-01T03:51:06;77.18;;;45.90;;
39486;SDS011;25173;50.430;18.926;2023-03-01T03:54:09;77.32;;;44.13;;
39486;SDS011;25173;50.430;18.926;2023-03-01T03:57:11;73.45;;;43.25;;
39486;SDS011;25173;50.430;18.926;2023-03-01T04:00:12;66.30;;;41.50;;
39486;SDS011;25173;50.430;18.926;2023-03-01T04:03:13;73.32;;;42.78;;
39486;SDS011;25173;50.430;18.926;2023-03-01T04:06:16;71.32;;;41.85;;
39486;SDS011;25173;50.430;18.926;2023-03-01T04:09:17;69.65;;;41.35;;
39486;SDS011;25173;50.430;18.926;2023-03-01T04:12:17;75.70;;;43.15;;
39486;SDS011;25173;50.430;18.926;2023-03-01T04:15:24;73.38;;;40.70;;
39486;SDS011;25173;50.430;18.926;2023-03-01T04:18:26;79.20;;;42.55;;
39486;SDS011;25173;50.430;18.926;2023-03-01T04:21:26;82.05;;;44.00;;
39486;SDS011;25173;50.430;18.926;2023-03-01T04:24:27;78.45;;;43.42;;
39486;SDS011;25173;50.430;18.926;2023-03-01T04:27:28;172.20;;;72.32;;
39486;SDS011;25173;50.430;18.926;2023-03-01T04:30:28;240.55;;;91.82;;
39486;SDS011;25173;50.430;18.926;2023-03-01T04:33:29;316.13;;;126.90;;
39486;SDS011;25173;50.430;18.926;2023-03-01T04:36:29;395.27;;;147.60;;
39486;SDS011;25173;50.430;18.926;2023-03-01T04:39:30;194.07;;;82.68;;
39486;SDS011;25173;50.430;18.926;2023-03-01T04:42:31;141.60;;;59.63;;
39486;SDS011;25173;50.430;18.926;2023-03-01T04:45:31;118.80;;;56.83;;
39486;SDS011;25173;50.430;18.926;2023-03-01T04:48:35;115.13;;;57.03;;
39486;SDS011;25173;50.430;18.926;2023-03-01T04:51:37;115.18;;;55.65;;
39486;SDS011;25173;50.430;18.926;2023-03-01T04:54:37;121.05;;;58.63;;
39486;SDS011;25173;50.430;18.926;2023-03-01T04:57:38;136.88;;;63.42;;
39486;SDS011;25173;50.430;18.926;2023-03-01T05:00:39;107.07;;;53.35;;
39486;SDS011;25173;50.430;18.926;2023-03-01T05:03:41;118.22;;;52.45;;
39486;SDS011;25173;50.430;18.926;2023-03-01T05:06:43;96.00;;;47.80;;
39486;SDS011;25173;50.430;18.926;2023-03-01T05:09:45;106.60;;;51.00;;
39486;SDS011;25173;50.430;18.926;2023-03-01T05:12:46;94.43;;;49.15;;
39486;SDS011;25173;50.430;18.926;2023-03-01T05:15:57;106.07;;;50.70;;
39486;SDS011;25173;50.430;18.926;2023-03-01T05:18:59;115.22;;;57.45;;
39486;SDS011;25173;50.430;18.926;2023-03-01T05:22:00;120.88;;;61.95;;
39486;SDS011;25173;50.430;18.926;2023-03-01T05:25:06;201.68;;;96.43;;
39486;SDS011;25173;50.430;18.926;2023-03-01T05:28:10;123.43;;;67.43;;
39486;SDS011;25173;50.430;18.926;2023-03-01T05:31:12;158.93;;;84.45;;
39486;SDS011;25173;50.430;18.926;2023-03-01T05:34:12;144.38;;;72.47;;
39486;SDS011;25173;50.430;18.926;2023-03-01T05:37:13;138.80;;;71.78;;
39486;SDS011;25173;50.430;18.926;2023-03-01T05:40:16;125.72;;;62.92;;
39486;SDS011;25173;50.430;18.926;2023-03-01T05:43:21;108.55;;;55.90;;
39486;SDS011;25173;50.430;18.926;2023-03-01T05:46:22;92.10;;;51.28;;
39486;SDS011;25173;50.430;18.926;2023-03-01T05:49:24;92.13;;;49.17;;
39486;SDS011;25173;50.430;18.926;2023-03-01T05:52:26;89.53;;;49.83;;
39486;SDS011;25173;50.430;18.926;2023-03-01T05:55:26;85.85;;;49.65;;
39486;SDS011;25173;50.430;18.926;2023-03-01T05:58:29;89.93;;;49.63;;
39486;SDS011;25173;50.430;18.926;2023-03-01T06:01:29;114.72;;;63.08;;
39486;SDS011;25173;50.430;18.926;2023-03-01T06:04:30;111.43;;;60.92;;
39486;SDS011;25173;50.430;18.926;2023-03-01T06:07:31;120.72;;;63.88;;
39486;SDS011;25173;50.430;18.926;2023-03-01T06:10:31;132.13;;;68.85;;
39486;SDS011;25173;50.430;18.926;2023-03-01T06:13:32;151.38;;;77.40;;
39486;SDS011;25173;50.430;18.926;2023-03-01T06:16:33;165.35;;;83.35;;
39486;SDS011;25173;50.430;18.926;2023-03-01T06:19:34;180.55;;;81.53;;
39486;SDS011;25173;50.430;18.926;2023-03-01T06:22:34;178.82;;;83.65;;
39486;SDS011;25173;50.430;18.926;2023-03-01T06:25:35;215.00;;;98.30;;
39486;SDS011;25173;50.430;18.926;2023-03-01T06:28:36;182.15;;;92.15;;
39486;SDS011;25173;50.430;18.926;2023-03-01T06:31:37;211.30;;;99.63;;
39486;SDS011;25173;50.430;18.926;2023-03-01T06:34:37;185.80;;;92.75;;
39486;SDS011;25173;50.430;18.926;2023-03-01T06:37:38;207.65;;;95.63;;
39486;SDS011;25173;50.430;18.926;2023-03-01T06:40:39;196.98;;;97.38;;
39486;SDS011;25173;50.430;18.926;2023-03-01T06:43:39;167.65;;;84.32;;
39486;SDS011;25173;50.430;18.926;2023-03-01T06:46:40;149.60;;;75.35;;
39486;SDS011;25173;50.430;18.926;2023-03-01T06:49:40;117.00;;;60.55;;
39486;SDS011;25173;50.430;18.926;2023-03-01T06:52:41;122.38;;;64.30;;
39486;SDS011;25173;50.430;18.926;2023-03-01T06:55:44;127.45;;;66.10;;
39486;SDS011;25173;50.430;18.926;2023-03-01T06:58:44;113.38;;;59.83;;
39486;SDS011;25173;50.430;18.926;2023-03-01T07:01:45;106.68;;;57.05;;
39486;SDS011;25173;50.430;18.926;2023-03-01T07:04:45;97.15;;;53.25;;
39486;SDS011;25173;50.430;18.926;2023-03-01T07:07:46;132.25;;;68.65;;
39486;SDS011;25173;50.430;18.926;2023-03-01T07:10:47;155.55;;;81.22;;
39486;SDS011;25173;50.430;18.926;2023-03-01T07:13:47;120.18;;;69.45;;
39486;SDS011;25173;50.430;18.926;2023-03-01T07:16:48;117.82;;;65.70;;
39486;SDS011;25173;50.430;18.926;2023-03-01T07:19:48;121.47;;;69.50;;
39486;SDS011;25173;50.430;18.926;2023-03-01T07:22:49;132.30;;;75.25;;
39486;SDS011;25173;50.430;18.926;2023-03-01T07:25:51;128.43;;;66.43;;
39486;SDS011;25173;50.430;18.926;2023-03-01T07:28:53;112.93;;;60.58;;
39486;SDS011;25173;50.430;18.926;2023-03-01T07:31:53;111.55;;;57.55;;
39486;SDS011;25173;50.430;18.926;2023-03-01T07:34:55;97.22;;;47.85;;
39486;SDS011;25173;50.430;18.926;2023-03-01T07:37:55;95.03;;;47.85;;
39486;SDS011;25173;50.430;18.926;2023-03-01T07:41:00;74.75;;;38.97;;
39486;SDS011;25173;50.430;18.926;2023-03-01T07:44:02;116.28;;;52.63;;
39486;SDS011;25173;50.430;18.926;2023-03-01T07:47:03;90.57;;;42.20;;
39486;SDS011;25173;50.430;18.926;2023-03-01T07:50:04;65.10;;;35.92;;
39486;SDS011;25173;50.430;18.926;2023-03-01T07:53:05;81.35;;;41.00;;
39486;SDS011;25173;50.430;18.926;2023-03-01T07:56:09;74.88;;;40.53;;
39486;SDS011;25173;50.430;18.926;2023-03-01T08:02:12;67.03;;;36.30;;
39486;SDS011;25173;50.430;18.926;2023-03-01T08:05:13;65.88;;;35.75;;
39486;SDS011;25173;50.430;18.926;2023-03-01T08:08:13;74.57;;;36.10;;
39486;SDS011;25173;50.430;18.926;2023-03-01T08:11:14;73.45;;;36.35;;
39486;SDS011;25173;50.430;18.926;2023-03-01T08:14:15;64.78;;;32.30;;
39486;SDS011;25173;50.430;18.926;2023-03-01T08:17:16;60.53;;;28.85;;
39486;SDS011;25173;50.430;18.926;2023-03-01T08:20:17;45.63;;;23.67;;
39486;SDS011;25173;50.430;18.926;2023-03-01T08:23:17;36.00;;;18.88;;
39486;SDS011;25173;50.430;18.926;2023-03-01T08:26:19;35.10;;;18.88;;
39486;SDS011;25173;50.430;18.926;2023-03-01T08:29:21;31.02;;;17.80;;
39486;SDS011;25173;50.430;18.926;2023-03-01T08:32:22;27.27;;;15.50;;
39486;SDS011;25173;50.430;18.926;2023-03-01T08:35:23;25.42;;;14.13;;
39486;SDS011;25173;50.430;18.926;2023-03-01T08:38:23;21.60;;;14.25;;
39486;SDS011;25173;50.430;18.926;2023-03-01T08:41:24;20.75;;;13.55;;
39486;SDS011;25173;50.430;18.926;2023-03-01T08:44:25;25.00;;;15.60;;
39486;SDS011;25173;50.430;18.926;2023-03-01T08:47:26;31.40;;;19.50;;
39486;SDS011;25173;50.430;18.926;2023-03-01T08:50:27;26.95;;;14.95;;
39486;SDS011;25173;50.430;18.926;2023-03-01T08:53:27;28.00;;;15.13;;
39486;SDS011;25173;50.430;18.926;2023-03-01T08:56:28;23.58;;;14.93;;
39486;SDS011;25173;50.430;18.926;2023-03-01T08:59:29;26.08;;;15.27;;
39486;SDS011;25173;50.430;18.926;2023-03-01T09:02:30;22.17;;;14.35;;
39486;SDS011;25173;50.430;18.926;2023-03-01T09:05:31;23.42;;;13.68;;
39486;SDS011;25173;50.430;18.926;2023-03-01T09:08:39;21.67;;;13.63;;
39486;SDS011;25173;50.430;18.926;2023-03-01T09:11:45;25.13;;;13.98;;
39486;SDS011;25173;50.430;18.926;2023-03-01T09:14:47;24.80;;;13.65;;
39486;SDS011;25173;50.430;18.926;2023-03-01T09:17:47;23.05;;;13.05;;
39486;SDS011;25173;50.430;18.926;2023-03-01T09:20:48;21.45;;;13.07;;
39486;SDS011;25173;50.430;18.926;2023-03-01T09:23:48;21.00;;;13.63;;
39486;SDS011;25173;50.430;18.926;2023-03-01T09:26:50;21.83;;;13.32;;
39486;SDS011;25173;50.430;18.926;2023-03-01T09:29:52;19.90;;;13.07;;
39486;SDS011;25173;50.430;18.926;2023-03-01T09:32:53;25.55;;;16.48;;
39486;SDS011;25173;50.430;18.926;2023-03-01T09:35:57;19.85;;;13.73;;
39486;SDS011;25173;50.430;18.926;2023-03-01T09:39:01;26.45;;;13.48;;
39486;SDS011;25173;50.430;18.926;2023-03-01T09:42:03;21.80;;;13.18;;
39486;SDS011;25173;50.430;18.926;2023-03-01T09:45:05;20.95;;;14.45;;
39486;SDS011;25173;50.430;18.926;2023-03-01T09:48:21;37.53;;;18.85;;
39486;SDS011;25173;50.430;18.926;2023-03-01T09:51:27;136.07;;;63.78;;
39486;SDS011;25173;50.430;18.926;2023-03-01T09:54:31;137.43;;;66.70;;
39486;SDS011;25173;50.430;18.926;2023-03-01T10:04:41;55.05;;;27.23;;
39486;SDS011;25173;50.430;18.926;2023-03-01T10:08:00;25.88;;;14.77;;
39486;SDS011;25173;50.430;18.926;2023-03-01T10:11:20;25.90;;;14.98;;
39486;SDS011;25173;50.430;18.926;2023-03-01T10:20:52;119.32;;;66.47;;
39486;SDS011;25173;50.430;18.926;2023-03-01T10:24:01;50.25;;;30.15;;
39486;SDS011;25173;50.430;18.926;2023-03-01T10:27:17;27.88;;;13.50;;
39486;SDS011;25173;50.430;18.926;2023-03-01T10:30:37;20.00;;;12.90;;
39486;SDS011;25173;50.430;18.926;2023-03-01T10:33:40;19.73;;;12.82;;
39486;SDS011;25173;50.430;18.926;2023-03-01T10:36:41;43.47;;;25.20;;
39486;SDS011;25173;50.430;18.926;2023-03-01T10:43:10;46.72;;;25.45;;
39486;SDS011;25173;50.430;18.926;2023-03-01T10:46:34;209.52;;;111.65;;
39486;SDS011;25173;50.430;18.926;2023-03-01T10:49:35;77.05;;;42.85;;
39486;SDS011;25173;50.430;18.926;2023-03-01T10:52:36;108.85;;;59.90;;
39486;SDS011;25173;50.430;18.926;2023-03-01T10:55:40;25.23;;;14.17;;
39486;SDS011;25173;50.430;18.926;2023-03-01T10:58:56;267.92;;;144.57;;
39486;SDS011;25173;50.430;18.926;2023-03-01T11:05:23;23.35;;;15.13;;
39486;SDS011;25173;50.430;18.926;2023-03-01T11:11:39;193.43;;;96.82;;
39486;SDS011;25173;50.430;18.926;2023-03-01T11:14:45;146.90;;;63.35;;
39486;SDS011;25173;50.430;18.926;2023-03-01T11:17:50;45.17;;;31.73;;
39486;SDS011;25173;50.430;18.926;2023-03-01T11:20:52;239.75;;;117.55;;
39486;SDS011;25173;50.430;18.926;2023-03-01T11:23:55;33.00;;;17.85;;
39486;SDS011;25173;50.430;18.926;2023-03-01T11:26:59;457.88;;;243.70;;
39486;SDS011;25173;50.430;18.926;2023-03-01T11:36:43;21.80;;;15.05;;
39486;SDS011;25173;50.430;18.926;2023-03-01T11:40:44;24.48;;;14.65;;
39486;SDS011;25173;50.430;18.926;2023-03-01T11:43:53;18.85;;;13.32;;
39486;SDS011;25173;50.430;18.926;2023-03-01T11:47:05;21.52;;;13.55;;
39486;SDS011;25173;50.430;18.926;2023-03-01T11:56:54;26.30;;;15.02;;
39486;SDS011;25173;50.430;18.926;2023-03-01T12:10:06;21.67;;;13.77;;
39486;SDS011;25173;50.430;18.926;2023-03-01T12:13:23;19.67;;;13.35;;
39486;SDS011;25173;50.430;18.926;2023-03-01T12:23:18;29.85;;;23.58;;
39486;SDS011;25173;50.430;18.926;2023-03-01T12:26:36;205.48;;;73.82;;
39486;SDS011;25173;50.430;18.926;2023-03-01T12:29:52;21.33;;;12.95;;
39486;SDS011;25173;50.430;18.926;2023-03-01T12:46:41;19.77;;;13.75;;
39486;SDS011;25173;50.430;18.926;2023-03-01T12:49:57;17.25;;;11.05;;
39486;SDS011;25173;50.430;18.926;2023-03-01T12:53:02;16.98;;;12.38;;
39486;SDS011;25173;50.430;18.926;2023-03-01T12:56:06;14.95;;;10.93;;
39486;SDS011;25173;50.430;18.926;2023-03-01T13:06:02;16.15;;;11.57;;
39486;SDS011;25173;50.430;18.926;2023-03-01T13:15:52;18.48;;;11.90;;
39486;SDS011;25173;50.430;18.926;2023-03-01T13:19:06;19.55;;;12.50;;
39486;SDS011;25173;50.430;18.926;2023-03-01T13:22:26;21.00;;;12.52;;
39486;SDS011;25173;50.430;18.926;2023-03-01T13:25:32;43.63;;;23.35;;
39486;SDS011;25173;50.430;18.926;2023-03-01T13:34:50;24.95;;;16.70;;
39486;SDS011;25173;50.430;18.926;2023-03-01T13:38:01;51.97;;;32.65;;
39486;SDS011;25173;50.430;18.926;2023-03-01T13:44:41;76.50;;;46.80;;
39486;SDS011;25173;50.430;18.926;2023-03-01T13:47:43;21.20;;;13.57;;
39486;SDS011;25173;50.430;18.926;2023-03-01T13:50:51;22.60;;;14.60;;
39486;SDS011;25173;50.430;18.926;2023-03-01T13:53:57;60.10;;;36.47;;
39486;SDS011;25173;50.430;18.926;2023-03-01T13:56:59;22.90;;;13.82;;
39486;SDS011;25173;50.430;18.926;2023-03-01T14:00:01;51.22;;;33.85;;
39486;SDS011;25173;50.430;18.926;2023-03-01T14:03:09;44.72;;;29.77;;
39486;SDS011;25173;50.430;18.926;2023-03-01T14:06:21;18.02;;;12.63;;
39486;SDS011;25173;50.430;18.926;2023-03-01T14:09:25;74.80;;;54.20;;
39486;SDS011;25173;50.430;18.926;2023-03-01T14:12:36;40.03;;;33.72;;
39486;SDS011;25173;50.430;18.926;2023-03-01T14:15:50;25.08;;;18.17;;
39486;SDS011;25173;50.430;18.926;2023-03-01T14:19:09;44.63;;;35.30;;
39486;SDS011;25173;50.430;18.926;2023-03-01T14:22:24;22.77;;;15.82;;
39486;SDS011;25173;50.430;18.926;2023-03-01T14:25:32;28.48;;;17.02;;
39486;SDS011;25173;50.430;18.926;2023-03-01T14:28:35;36.28;;;24.23;;
39486;SDS011;25173;50.430;18.926;2023-03-01T14:31:39;29.67;;;18.80;;
39486;SDS011;25173;50.430;18.926;2023-03-01T14:34:43;22.55;;;14.75;;
39486;SDS011;25173;50.430;18.926;2023-03-01T14:37:46;28.55;;;19.75;;
39486;SDS011;25173;50.430;18.926;2023-03-01T14:40:46;42.47;;;27.77;;
39486;SDS011;25173;50.430;18.926;2023-03-01T14:43:53;18.20;;;12.95;;
39486;SDS011;25173;50.430;18.926;2023-03-01T14:47:01;18.95;;;12.55;;
39486;SDS011;25173;50.430;18.926;2023-03-01T14:50:05;147.60;;;94.72;;
39486;SDS011;25173;50.430;18.926;2023-03-01T14:53:07;94.78;;;61.05;;
39486;SDS011;25173;50.430;18.926;2023-03-01T14:56:19;73.15;;;46.28;;
39486;SDS011;25173;50.430;18.926;2023-03-01T14:59:23;23.05;;;15.80;;
39486;SDS011;25173;50.430;18.926;2023-03-01T15:02:25;30.48;;;20.10;;
39486;SDS011;25173;50.430;18.926;2023-03-01T15:05:31;28.80;;;19.55;;
39486;SDS011;25173;50.430;18.926;2023-03-01T15:08:33;19.25;;;13.52;;
39486;SDS011;25173;50.430;18.926;2023-03-01T15:11:36;19.00;;;12.60;;
39486;SDS011;25173;50.430;18.926;2023-03-01T15:14:41;20.63;;;13.93;;
39486;SDS011;25173;50.430;18.926;2023-03-01T15:17:43;39.65;;;26.60;;
39486;SDS011;25173;50.430;18.926;2023-03-01T15:20:44;68.60;;;44.03;;
39486;SDS011;25173;50.430;18.926;2023-03-01T15:23:49;67.97;;;44.50;;
39486;SDS011;25173;50.430;18.926;2023-03-01T15:26:56;28.48;;;17.60;;
39486;SDS011;25173;50.430;18.926;2023-03-01T15:30:02;120.63;;;83.70;;
39486;SDS011;25173;50.430;18.926;2023-03-01T15:33:17;78.13;;;54.53;;
39486;SDS011;25173;50.430;18.926;2023-03-01T15:36:35;104.05;;;63.30;;
39486;SDS011;25173;50.430;18.926;2023-03-01T15:39:42;72.00;;;64.75;;
39486;SDS011;25173;50.430;18.926;2023-03-01T15:42:53;20.88;;;15.10;;
39486;SDS011;25173;50.430;18.926;2023-03-01T15:45:57;18.20;;;12.30;;
39486;SDS011;25173;50.430;18.926;2023-03-01T15:48:59;27.25;;;22.48;;
39486;SDS011;25173;50.430;18.926;2023-03-01T15:52:02;22.27;;;14.05;;
39486;SDS011;25173;50.430;18.926;2023-03-01T15:55:05;27.10;;;14.77;;
39486;SDS011;25173;50.430;18.926;2023-03-01T15:58:24;26.10;;;17.00;;
39486;SDS011;25173;50.430;18.926;2023-03-01T16:01:25;35.20;;;22.75;;
39486;SDS011;25173;50.430;18.926;2023-03-01T16:04:26;36.67;;;25.17;;
39486;SDS011;25173;50.430;18.926;2023-03-01T16:07:26;31.90;;;21.27;;
39486;SDS011;25173;50.430;18.926;2023-03-01T16:10:28;50.50;;;32.58;;
39486;SDS011;25173;50.430;18.926;2023-03-01T16:13:30;45.25;;;25.42;;
39486;SDS011;25173;50.430;18.926;2023-03-01T16:16:31;44.72;;;25.88;;
39486;SDS011;25173;50.430;18.926;2023-03-01T16:19:32;47.35;;;27.17;;
39486;SDS011;25173;50.430;18.926;2023-03-01T16:22:32;45.53;;;24.42;;
39486;SDS011;25173;50.430;18.926;2023-03-01T16:25:33;45.55;;;24.02;;
39486;SDS011;25173;50.430;18.926;2023-03-01T16:28:35;41.63;;;26.63;;
39486;SDS011;25173;50.430;18.926;2023-03-01T16:31:35;45.10;;;26.77;;
39486;SDS011;25173;50.430;18.926;2023-03-01T16:34:36;48.80;;;28.80;;
39486;SDS011;25173;50.430;18.926;2023-03-01T16:37:37;48.28;;;30.90;;
39486;SDS011;25173;50.430;18.926;2023-03-01T16:40:38;47.83;;;27.25;;
39486;SDS011;25173;50.430;18.926;2023-03-01T16:43:39;56.03;;;30.50;;
39486;SDS011;25173;50.430;18.926;2023-03-01T16:46:41;62.47;;;33.20;;
39486;SDS011;25173;50.430;18.926;2023-03-01T16:49:42;58.72;;;31.80;;
39486;SDS011;25173;50.430;18.926;2023-03-01T16:52:43;55.58;;;32.50;;
39486;SDS011;25173;50.430;18.926;2023-03-01T16:55:45;56.38;;;33.90;;
39486;SDS011;25173;50.430;18.926;2023-03-01T16:58:53;79.13;;;42.65;;
39486;SDS011;25173;50.430;18.926;2023-03-01T17:01:54;95.03;;;50.20;;
39486;SDS011;25173;50.430;18.926;2023-03-01T17:04:55;137.05;;;75.20;;
39486;SDS011;25173;50.430;18.926;2023-03-01T17:07:55;108.88;;;57.45;;
39486;SDS011;25173;50.430;18.926;2023-03-01T17:11:09;126.32;;;58.17;;
39486;SDS011;25173;50.430;18.926;2023-03-01T17:14:12;119.13;;;59.60;;
39486;SDS011;25173;50.430;18.926;2023-03-01T17:17:12;123.32;;;65.53;;
39486;SDS011;25173;50.430;18.926;2023-03-01T17:20:13;139.07;;;66.93;;
39486;SDS011;25173;50.430;18.926;2023-03-01T17:23:13;138.55;;;71.32;;
39486;SDS011;25173;50.430;18.926;2023-03-01T17:26:14;185.68;;;95.65;;
39486;SDS011;25173;50.430;18.926;2023-03-01T17:29:15;186.55;;;104.97;;
39486;SDS011;25173;50.430;18.926;2023-03-01T17:32:18;131.18;;;69.95;;
39486;SDS011;25173;50.430;18.926;2023-03-01T17:35:18;145.05;;;74.63;;
39486;SDS011;25173;50.430;18.926;2023-03-01T17:38:19;123.68;;;66.93;;
39486;SDS011;25173;50.430;18.926;2023-03-01T17:41:20;146.88;;;79.10;;
39486;SDS011;25173;50.430;18.926;2023-03-01T17:44:22;149.60;;;76.18;;
39486;SDS011;25173;50.430;18.926;2023-03-01T17:47:23;147.48;;;75.13;;
39486;SDS011;25173;50.430;18.926;2023-03-01T17:50:24;114.60;;;60.85;;
39486;SDS011;25173;50.430;18.926;2023-03-01T17:53:29;137.35;;;68.60;;
39486;SDS011;25173;50.430;18.926;2023-03-01T17:56:30;179.20;;;84.53;;
39486;SDS011;25173;50.430;18.926;2023-03-01T17:59:37;155.90;;;77.55;;
39486;SDS011;25173;50.430;18.926;2023-03-01T18:02:37;146.20;;;72.57;;
39486;SDS011;25173;50.430;18.926;2023-03-01T18:05:38;259.65;;;115.82;;
39486;SDS011;25173;50.430;18.926;2023-03-01T18:08:38;231.52;;;108.30;;
39486;SDS011;25173;50.430;18.926;2023-03-01T18:11:39;288.85;;;133.70;;
39486;SDS011;25173;50.430;18.926;2023-03-01T18:14:41;242.75;;;112.10;;
39486;SDS011;25173;50.430;18.926;2023-03-01T18:17:41;236.63;;;106.85;;
39486;SDS011;25173;50.430;18.926;2023-03-01T18:20:42;226.38;;;98.75;;
39486;SDS011;25173;50.430;18.926;2023-03-01T18:23:43;253.35;;;111.85;;
39486;SDS011;25173;50.430;18.926;2023-03-01T18:26:43;244.25;;;102.13;;
39486;SDS011;25173;50.430;18.926;2023-03-01T18:29:44;196.77;;;94.28;;
39486;SDS011;25173;50.430;18.926;2023-03-01T18:32:44;204.82;;;96.90;;
39486;SDS011;25173;50.430;18.926;2023-03-01T18:35:45;182.30;;;90.40;;
39486;SDS011;25173;50.430;18.926;2023-03-01T18:38:47;199.85;;;98.88;;
39486;SDS011;25173;50.430;18.926;2023-03-01T18:41:48;209.27;;;93.07;;
39486;SDS011;25173;50.430;18.926;2023-03-01T18:44:49;214.20;;;95.78;;
39486;SDS011;25173;50.430;18.926;2023-03-01T18:47:50;259.35;;;121.32;;
39486;SDS011;25173;50.430;18.926;2023-03-01T18:50:50;190.55;;;87.85;;
39486;SDS011;25173;50.430;18.926;2023-03-01T18:53:51;168.50;;;81.60;;
39486;SDS011;25173;50.430;18.926;2023-03-01T18:56:52;155.30;;;80.43;;
39486;SDS011;25173;50.430;18.926;2023-03-01T18:59:53;178.63;;;89.72;;
39486;SDS011;25173;50.430;18.926;2023-03-01T19:02:54;182.68;;;87.63;;
39486;SDS011;25173;50.430;18.926;2023-03-01T19:05:54;162.85;;;81.90;;
39486;SDS011;25173;50.430;18.926;2023-03-01T19:08:56;155.20;;;76.70;;
39486;SDS011;25173;50.430;18.926;2023-03-01T19:11:57;152.18;;;78.00;;
39486;SDS011;25173;50.430;18.926;2023-03-01T19:15:00;134.85;;;67.97;;
39486;SDS011;25173;50.430;18.926;2023-03-01T19:18:00;145.90;;;72.47;;
39486;SDS011;25173;50.430;18.926;2023-03-01T19:21:03;174.20;;;86.47;;